首页
METAR-TAF:

METAR-TAF

机场 :

Chautauqua County/Jamestown Airport

Jamestown, 紐約州, 美国

纬度: 42-09N, 经度: 079-16W, 海拔: 525米

当前天气观测

该预报发布于18分钟前的08:56 UTC
风速6节,风向西北
温度 -9°C
湿度 79%
气压 1023 hPa
能見度: 16.1公里
阴天层高于5000英尺

METAR: KJHW 130856Z AUTO 31006KT 10SM OVC050 M09/M12 A3021 RMK AO2 SLP264 60000 T10891117 51007 FZRANO

时间: 04:14 (09:14 UTC)

预报

该预报发布于3小时和39分钟前的05:35 UTC
预报有效从13日的 06点(UTC)到 14日的 06点(UTC)
风速10节,风向北转西北
能見度: 9.7公里
散云层高于1500英尺
多云层高于5000英尺
小雪
短暂存在
从 13日的 06点(UTC)到 13日的 08点(UTC)
能見度: 3.2公里
阴天层高于1500英尺
小阵雪
从 13日的 0800点(UTC)
风速10节,风向西转西北,有时为17节阵风
能見度: 4.8公里
阴天层高于2500英尺
小雪
短暂存在
从 13日的 08点(UTC)到 13日的 10点(UTC)
能見度: 1.6公里
阴天层高于600英尺
小阵雪
从 13日的 1000点(UTC)
风速9节,风向西转西北
能見度: 6.4公里
阴天层高于3000英尺
小雪
短暂存在
从 13日的 10点(UTC)到 13日的 14点(UTC)
能見度: 3.2公里
阴天层高于1500英尺
小阵雪
从 13日的 1400点(UTC)
风速7节,风向西转西北
能見度: 10公里
多云层高于3500英尺
短暂存在
从 13日的 14点(UTC)到 13日的 16点(UTC)
能見度: 8.0公里
多云层高于3500英尺
小阵雪
从 14日的 0200点(UTC)
风速11节,风向,有时为20节阵风
能見度: 10公里
多云层高于10000英尺

TAF: KJHW 130535Z 1306/1406 33010KT 6SM -SN SCT015 BKN050 TEMPO 1306/1308 2SM -SHSN OVC015 FM130800 30010G17KT 3SM -SN OVC025 TEMPO 1308/1310 1SM -SHSN OVC006 FM131000 30009KT 4SM -SN OVC030 TEMPO 1310/1314 2SM -SHSN OVC015 FM131400 30007KT P6SM BKN035 TEMPO 1314/1316 5SM -SHSN BKN035 FM140200 17011G20KT P6SM BKN100

超过4000个机场的气象观测和天气预报(METAR&TAF报告)。

可查询的气象台以黄色和红色小点在地图上表示。

将鼠标移到小点上方,可查看气象台名称。

然后点击查看天气观测和预报。

如需切换地图:点击带黑十字的绿色按钮放大地图;点击带横线的绿色按钮缩小地图;或者点击绿色箭头查看邻近地区的地图。


METAR-TAF: